sensor_id;sensor_type;location;lat;lon;timestamp;P1;durP1;ratioP1;P2;durP2;ratioP2
21671;SDS011;10997;52.242;8.168;2023-07-20T00:02:05;11.80;;;3.22;;
21671;SDS011;10997;52.242;8.168;2023-07-20T00:07:07;6.40;;;3.35;;
21671;SDS011;10997;52.242;8.168;2023-07-20T00:12:10;6.07;;;3.50;;
21671;SDS011;10997;52.242;8.168;2023-07-20T00:17:11;8.77;;;3.22;;
21671;SDS011;10997;52.242;8.168;2023-07-20T00:22:11;8.13;;;3.08;;
21671;SDS011;10997;52.242;8.168;2023-07-20T00:27:13;7.60;;;3.03;;
21671;SDS011;10997;52.242;8.168;2023-07-20T00:32:13;11.82;;;3.60;;
21671;SDS011;10997;52.242;8.168;2023-07-20T00:37:14;10.32;;;3.75;;
21671;SDS011;10997;52.242;8.168;2023-07-20T00:42:14;8.93;;;3.25;;
21671;SDS011;10997;52.242;8.168;2023-07-20T00:47:15;8.38;;;3.30;;
21671;SDS011;10997;52.242;8.168;2023-07-20T00:52:16;10.70;;;3.50;;
21671;SDS011;10997;52.242;8.168;2023-07-20T00:57:16;8.68;;;3.50;;
21671;SDS011;10997;52.242;8.168;2023-07-20T01:02:19;8.23;;;3.50;;
21671;SDS011;10997;52.242;8.168;2023-07-20T01:07:24;8.13;;;3.60;;
21671;SDS011;10997;52.242;8.168;2023-07-20T01:12:33;10.60;;;3.80;;
21671;SDS011;10997;52.242;8.168;2023-07-20T01:17:42;10.75;;;3.47;;
21671;SDS011;10997;52.242;8.168;2023-07-20T01:22:57;7.93;;;3.95;;
21671;SDS011;10997;52.242;8.168;2023-07-20T01:33:26;12.25;;;4.13;;
21671;SDS011;10997;52.242;8.168;2023-07-20T01:38:28;8.48;;;4.47;;
21671;SDS011;10997;52.242;8.168;2023-07-20T01:43:29;8.45;;;4.20;;
21671;SDS011;10997;52.242;8.168;2023-07-20T01:48:29;9.80;;;4.38;;
21671;SDS011;10997;52.242;8.168;2023-07-20T01:53:30;9.80;;;4.22;;
21671;SDS011;10997;52.242;8.168;2023-07-20T01:58:31;11.60;;;4.70;;
21671;SDS011;10997;52.242;8.168;2023-07-20T02:03:31;16.65;;;5.18;;
21671;SDS011;10997;52.242;8.168;2023-07-20T02:08:32;11.70;;;4.82;;
21671;SDS011;10997;52.242;8.168;2023-07-20T02:13:32;12.35;;;5.03;;
21671;SDS011;10997;52.242;8.168;2023-07-20T02:18:33;8.30;;;4.75;;
21671;SDS011;10997;52.242;8.168;2023-07-20T02:23:33;11.65;;;5.15;;
21671;SDS011;10997;52.242;8.168;2023-07-20T02:28:34;5.30;;;4.35;;
21671;SDS011;10997;52.242;8.168;2023-07-20T02:33:35;7.45;;;4.82;;
21671;SDS011;10997;52.242;8.168;2023-07-20T02:38:35;6.15;;;5.47;;
21671;SDS011;10997;52.242;8.168;2023-07-20T02:43:36;7.22;;;5.22;;
21671;SDS011;10997;52.242;8.168;2023-07-20T02:48:36;8.52;;;6.93;;
21671;SDS011;10997;52.242;8.168;2023-07-20T02:53:37;8.93;;;7.03;;
21671;SDS011;10997;52.242;8.168;2023-07-20T02:58:40;9.27;;;7.90;;
21671;SDS011;10997;52.242;8.168;2023-07-20T03:03:45;11.35;;;8.50;;
21671;SDS011;10997;52.242;8.168;2023-07-20T03:08:46;10.88;;;9.20;;
21671;SDS011;10997;52.242;8.168;2023-07-20T03:13:48;11.70;;;9.30;;
21671;SDS011;10997;52.242;8.168;2023-07-20T03:18:49;9.77;;;8.77;;
21671;SDS011;10997;52.242;8.168;2023-07-20T03:23:49;12.05;;;9.75;;
21671;SDS011;10997;52.242;8.168;2023-07-20T03:28:50;12.50;;;8.95;;
21671;SDS011;10997;52.242;8.168;2023-07-20T03:33:51;11.93;;;9.65;;
21671;SDS011;10997;52.242;8.168;2023-07-20T03:38:52;8.95;;;7.47;;
21671;SDS011;10997;52.242;8.168;2023-07-20T03:43:53;8.25;;;7.45;;
21671;SDS011;10997;52.242;8.168;2023-07-20T03:48:53;8.60;;;7.18;;
21671;SDS011;10997;52.242;8.168;2023-07-20T03:53:54;9.05;;;7.70;;
21671;SDS011;10997;52.242;8.168;2023-07-20T03:58:54;8.13;;;7.25;;
21671;SDS011;10997;52.242;8.168;2023-07-20T04:03:55;7.80;;;6.95;;
21671;SDS011;10997;52.242;8.168;2023-07-20T04:08:56;9.45;;;6.97;;
21671;SDS011;10997;52.242;8.168;2023-07-20T04:13:56;8.45;;;7.60;;
21671;SDS011;10997;52.242;8.168;2023-07-20T04:18:57;8.65;;;7.78;;
21671;SDS011;10997;52.242;8.168;2023-07-20T04:23:58;10.32;;;7.72;;
21671;SDS011;10997;52.242;8.168;2023-07-20T04:28:58;9.10;;;8.20;;
21671;SDS011;10997;52.242;8.168;2023-07-20T04:33:59;9.30;;;8.27;;
21671;SDS011;10997;52.242;8.168;2023-07-20T04:39:00;9.45;;;8.45;;
21671;SDS011;10997;52.242;8.168;2023-07-20T04:44:01;10.52;;;8.50;;
21671;SDS011;10997;52.242;8.168;2023-07-20T04:49:01;9.20;;;8.05;;
21671;SDS011;10997;52.242;8.168;2023-07-20T04:54:02;9.13;;;8.20;;
21671;SDS011;10997;52.242;8.168;2023-07-20T04:59:03;9.88;;;7.95;;
21671;SDS011;10997;52.242;8.168;2023-07-20T05:04:03;8.40;;;7.60;;
21671;SDS011;10997;52.242;8.168;2023-07-20T05:09:04;8.05;;;7.07;;
21671;SDS011;10997;52.242;8.168;2023-07-20T05:14:07;8.43;;;6.53;;
21671;SDS011;10997;52.242;8.168;2023-07-20T05:19:08;7.40;;;6.53;;
21671;SDS011;10997;52.242;8.168;2023-07-20T05:24:08;11.27;;;7.22;;
21671;SDS011;10997;52.242;8.168;2023-07-20T05:29:09;9.77;;;7.00;;
21671;SDS011;10997;52.242;8.168;2023-07-20T05:34:09;6.35;;;5.75;;
21671;SDS011;10997;52.242;8.168;2023-07-20T05:39:10;8.30;;;5.32;;
21671;SDS011;10997;52.242;8.168;2023-07-20T05:44:11;5.60;;;4.90;;
21671;SDS011;10997;52.242;8.168;2023-07-20T05:49:11;6.38;;;4.70;;
21671;SDS011;10997;52.242;8.168;2023-07-20T05:54:12;5.85;;;4.82;;
21671;SDS011;10997;52.242;8.168;2023-07-20T05:59:13;6.55;;;4.80;;
21671;SDS011;10997;52.242;8.168;2023-07-20T06:04:13;10.18;;;4.78;;
21671;SDS011;10997;52.242;8.168;2023-07-20T06:09:14;5.85;;;3.90;;
21671;SDS011;10997;52.242;8.168;2023-07-20T06:14:14;4.97;;;3.80;;
21671;SDS011;10997;52.242;8.168;2023-07-20T06:19:15;5.50;;;4.20;;
21671;SDS011;10997;52.242;8.168;2023-07-20T06:24:18;5.85;;;4.15;;
21671;SDS011;10997;52.242;8.168;2023-07-20T06:29:20;8.30;;;4.28;;
21671;SDS011;10997;52.242;8.168;2023-07-20T06:34:21;6.25;;;3.85;;
21671;SDS011;10997;52.242;8.168;2023-07-20T06:39:22;4.97;;;4.35;;
21671;SDS011;10997;52.242;8.168;2023-07-20T06:44:23;4.50;;;4.10;;
21671;SDS011;10997;52.242;8.168;2023-07-20T06:49:24;6.82;;;3.50;;
21671;SDS011;10997;52.242;8.168;2023-07-20T06:54:25;6.32;;;3.00;;
21671;SDS011;10997;52.242;8.168;2023-07-20T06:59:26;4.03;;;2.78;;
21671;SDS011;10997;52.242;8.168;2023-07-20T07:04:27;4.13;;;2.40;;
21671;SDS011;10997;52.242;8.168;2023-07-20T07:09:28;2.70;;;2.05;;
21671;SDS011;10997;52.242;8.168;2023-07-20T07:14:28;4.00;;;2.63;;
21671;SDS011;10997;52.242;8.168;2023-07-20T07:19:29;3.75;;;2.00;;
21671;SDS011;10997;52.242;8.168;2023-07-20T07:24:30;4.43;;;1.65;;
21671;SDS011;10997;52.242;8.168;2023-07-20T07:29:33;3.15;;;1.85;;
21671;SDS011;10997;52.242;8.168;2023-07-20T07:34:34;5.45;;;1.70;;
21671;SDS011;10997;52.242;8.168;2023-07-20T07:39:34;3.40;;;1.50;;
21671;SDS011;10997;52.242;8.168;2023-07-20T07:44:35;6.47;;;1.67;;
21671;SDS011;10997;52.242;8.168;2023-07-20T07:49:36;3.53;;;1.55;;
21671;SDS011;10997;52.242;8.168;2023-07-20T07:54:36;2.42;;;1.23;;
21671;SDS011;10997;52.242;8.168;2023-07-20T07:59:37;6.22;;;1.50;;
21671;SDS011;10997;52.242;8.168;2023-07-20T08:04:38;3.05;;;1.25;;
21671;SDS011;10997;52.242;8.168;2023-07-20T08:09:39;4.32;;;1.10;;
21671;SDS011;10997;52.242;8.168;2023-07-20T08:14:39;2.78;;;1.00;;
21671;SDS011;10997;52.242;8.168;2023-07-20T08:19:40;3.75;;;1.55;;
21671;SDS011;10997;52.242;8.168;2023-07-20T08:24:42;1.55;;;0.90;;
21671;SDS011;10997;52.242;8.168;2023-07-20T08:29:45;2.28;;;0.90;;
21671;SDS011;10997;52.242;8.168;2023-07-20T08:34:45;3.70;;;1.00;;
21671;SDS011;10997;52.242;8.168;2023-07-20T08:39:46;3.38;;;1.40;;
21671;SDS011;10997;52.242;8.168;2023-07-20T08:44:46;1.25;;;0.90;;
21671;SDS011;10997;52.242;8.168;2023-07-20T08:49:48;2.45;;;1.00;;
21671;SDS011;10997;52.242;8.168;2023-07-20T08:54:49;3.20;;;0.93;;
21671;SDS011;10997;52.242;8.168;2023-07-20T08:59:50;2.60;;;1.10;;
21671;SDS011;10997;52.242;8.168;2023-07-20T09:04:53;2.58;;;1.20;;
21671;SDS011;10997;52.242;8.168;2023-07-20T09:09:56;1.25;;;1.00;;
21671;SDS011;10997;52.242;8.168;2023-07-20T09:14:57;1.98;;;0.90;;
21671;SDS011;10997;52.242;8.168;2023-07-20T09:20:01;1.92;;;1.02;;
21671;SDS011;10997;52.242;8.168;2023-07-20T09:25:12;1.80;;;1.05;;
21671;SDS011;10997;52.242;8.168;2023-07-20T09:30:14;2.42;;;0.90;;
21671;SDS011;10997;52.242;8.168;2023-07-20T09:35:17;2.72;;;0.98;;
21671;SDS011;10997;52.242;8.168;2023-07-20T09:40:19;0.82;;;0.60;;
21671;SDS011;10997;52.242;8.168;2023-07-20T09:45:23;1.20;;;0.70;;
21671;SDS011;10997;52.242;8.168;2023-07-20T09:50:23;1.48;;;0.70;;
21671;SDS011;10997;52.242;8.168;2023-07-20T09:55:25;1.20;;;0.63;;
21671;SDS011;10997;52.242;8.168;2023-07-20T10:00:26;1.92;;;0.80;;
21671;SDS011;10997;52.242;8.168;2023-07-20T10:05:27;1.48;;;0.73;;
21671;SDS011;10997;52.242;8.168;2023-07-20T10:10:32;0.95;;;0.80;;
21671;SDS011;10997;52.242;8.168;2023-07-20T10:15:36;0.93;;;0.70;;
21671;SDS011;10997;52.242;8.168;2023-07-20T10:20:40;2.60;;;0.80;;
21671;SDS011;10997;52.242;8.168;2023-07-20T10:25:41;1.38;;;1.00;;
21671;SDS011;10997;52.242;8.168;2023-07-20T10:30:43;1.95;;;1.20;;
21671;SDS011;10997;52.242;8.168;2023-07-20T10:35:51;1.45;;;1.20;;
21671;SDS011;10997;52.242;8.168;2023-07-20T10:40:55;2.55;;;1.20;;
21671;SDS011;10997;52.242;8.168;2023-07-20T10:45:57;2.65;;;1.67;;
21671;SDS011;10997;52.242;8.168;2023-07-20T10:51:09;2.88;;;1.60;;
21671;SDS011;10997;52.242;8.168;2023-07-20T10:56:20;3.50;;;2.08;;
21671;SDS011;10997;52.242;8.168;2023-07-20T11:01:27;2.13;;;2.03;;
21671;SDS011;10997;52.242;8.168;2023-07-20T11:06:30;5.25;;;2.22;;
21671;SDS011;10997;52.242;8.168;2023-07-20T11:11:34;2.10;;;1.90;;
21671;SDS011;10997;52.242;8.168;2023-07-20T11:21:41;3.00;;;1.88;;
21671;SDS011;10997;52.242;8.168;2023-07-20T11:26:52;2.15;;;1.30;;
21671;SDS011;10997;52.242;8.168;2023-07-20T11:31:53;1.60;;;1.50;;
21671;SDS011;10997;52.242;8.168;2023-07-20T11:36:54;1.10;;;1.00;;
21671;SDS011;10997;52.242;8.168;2023-07-20T11:41:55;2.15;;;1.00;;
21671;SDS011;10997;52.242;8.168;2023-07-20T11:47:00;1.67;;;0.90;;
21671;SDS011;10997;52.242;8.168;2023-07-20T11:52:03;2.65;;;0.98;;
21671;SDS011;10997;52.242;8.168;2023-07-20T11:57:20;1.80;;;0.90;;
21671;SDS011;10997;52.242;8.168;2023-07-20T12:02:21;1.05;;;0.70;;
21671;SDS011;10997;52.242;8.168;2023-07-20T12:07:22;1.70;;;0.80;;
21671;SDS011;10997;52.242;8.168;2023-07-20T12:12:22;1.38;;;0.65;;
21671;SDS011;10997;52.242;8.168;2023-07-20T12:17:28;3.05;;;0.80;;
21671;SDS011;10997;52.242;8.168;2023-07-20T12:22:29;2.97;;;0.80;;
21671;SDS011;10997;52.242;8.168;2023-07-20T12:27:29;1.45;;;0.82;;
21671;SDS011;10997;52.242;8.168;2023-07-20T12:32:30;1.77;;;0.90;;
21671;SDS011;10997;52.242;8.168;2023-07-20T12:37:30;1.42;;;0.80;;
21671;SDS011;10997;52.242;8.168;2023-07-20T12:42:32;0.85;;;0.60;;
21671;SDS011;10997;52.242;8.168;2023-07-20T12:47:33;4.53;;;0.73;;
21671;SDS011;10997;52.242;8.168;2023-07-20T12:52:37;0.90;;;0.75;;
21671;SDS011;10997;52.242;8.168;2023-07-20T12:57:38;1.30;;;0.70;;
21671;SDS011;10997;52.242;8.168;2023-07-20T13:02:41;1.27;;;0.60;;
21671;SDS011;10997;52.242;8.168;2023-07-20T13:07:41;1.38;;;0.70;;
21671;SDS011;10997;52.242;8.168;2023-07-20T13:12:42;1.25;;;0.80;;
21671;SDS011;10997;52.242;8.168;2023-07-20T13:17:43;1.50;;;0.70;;
21671;SDS011;10997;52.242;8.168;2023-07-20T13:22:43;2.47;;;0.70;;
21671;SDS011;10997;52.242;8.168;2023-07-20T13:27:44;2.45;;;0.75;;
21671;SDS011;10997;52.242;8.168;2023-07-20T13:32:44;14.82;;;0.93;;
21671;SDS011;10997;52.242;8.168;2023-07-20T13:37:45;3.13;;;1.10;;
21671;SDS011;10997;52.242;8.168;2023-07-20T13:42:46;1.27;;;0.88;;
21671;SDS011;10997;52.242;8.168;2023-07-20T13:47:46;1.27;;;0.80;;
21671;SDS011;10997;52.242;8.168;2023-07-20T13:52:47;2.45;;;1.00;;
21671;SDS011;10997;52.242;8.168;2023-07-20T13:57:47;1.17;;;0.70;;
21671;SDS011;10997;52.242;8.168;2023-07-20T14:02:48;1.02;;;0.80;;
21671;SDS011;10997;52.242;8.168;2023-07-20T14:07:48;1.08;;;0.60;;
21671;SDS011;10997;52.242;8.168;2023-07-20T14:12:50;1.65;;;0.90;;
21671;SDS011;10997;52.242;8.168;2023-07-20T14:17:50;1.20;;;0.65;;
21671;SDS011;10997;52.242;8.168;2023-07-20T14:22:51;0.93;;;0.50;;
21671;SDS011;10997;52.242;8.168;2023-07-20T14:27:52;1.48;;;0.45;;
21671;SDS011;10997;52.242;8.168;2023-07-20T14:32:52;2.60;;;0.57;;
21671;SDS011;10997;52.242;8.168;2023-07-20T14:37:53;2.85;;;0.50;;
21671;SDS011;10997;52.242;8.168;2023-07-20T14:42:54;1.20;;;0.55;;
21671;SDS011;10997;52.242;8.168;2023-07-20T14:47:55;0.50;;;0.50;;
21671;SDS011;10997;52.242;8.168;2023-07-20T14:52:56;0.50;;;0.50;;
21671;SDS011;10997;52.242;8.168;2023-07-20T14:57:56;0.45;;;0.45;;
21671;SDS011;10997;52.242;8.168;2023-07-20T15:02:57;0.85;;;0.55;;
21671;SDS011;10997;52.242;8.168;2023-07-20T15:07:58;0.90;;;0.60;;
21671;SDS011;10997;52.242;8.168;2023-07-20T15:12:58;0.98;;;0.60;;
21671;SDS011;10997;52.242;8.168;2023-07-20T15:17:59;1.25;;;0.77;;
21671;SDS011;10997;52.242;8.168;2023-07-20T15:22:59;0.88;;;0.60;;
21671;SDS011;10997;52.242;8.168;2023-07-20T15:28:00;0.55;;;0.40;;
21671;SDS011;10997;52.242;8.168;2023-07-20T15:33:00;0.47;;;0.47;;
21671;SDS011;10997;52.242;8.168;2023-07-20T15:38:01;0.70;;;0.70;;
21671;SDS011;10997;52.242;8.168;2023-07-20T15:43:02;0.68;;;0.50;;
21671;SDS011;10997;52.242;8.168;2023-07-20T15:48:02;2.10;;;0.60;;
21671;SDS011;10997;52.242;8.168;2023-07-20T15:53:03;0.98;;;0.70;;
21671;SDS011;10997;52.242;8.168;2023-07-20T15:58:04;0.63;;;0.60;;
21671;SDS011;10997;52.242;8.168;2023-07-20T16:03:04;1.42;;;0.60;;
21671;SDS011;10997;52.242;8.168;2023-07-20T16:08:06;1.10;;;0.70;;
21671;SDS011;10997;52.242;8.168;2023-07-20T16:13:07;0.60;;;0.50;;
21671;SDS011;10997;52.242;8.168;2023-07-20T16:18:08;1.98;;;0.60;;
21671;SDS011;10997;52.242;8.168;2023-07-20T16:23:08;0.60;;;0.60;;
21671;SDS011;10997;52.242;8.168;2023-07-20T16:28:09;2.05;;;0.70;;
21671;SDS011;10997;52.242;8.168;2023-07-20T16:33:10;1.95;;;0.60;;
21671;SDS011;10997;52.242;8.168;2023-07-20T16:38:10;3.20;;;0.70;;
21671;SDS011;10997;52.242;8.168;2023-07-20T16:43:11;1.50;;;0.70;;
21671;SDS011;10997;52.242;8.168;2023-07-20T16:48:12;0.98;;;0.57;;
21671;SDS011;10997;52.242;8.168;2023-07-20T16:53:13;2.45;;;0.82;;
21671;SDS011;10997;52.242;8.168;2023-07-20T16:58:13;0.88;;;0.65;;
21671;SDS011;10997;52.242;8.168;2023-07-20T17:03:14;2.75;;;0.70;;
21671;SDS011;10997;52.242;8.168;2023-07-20T17:08:16;0.75;;;0.52;;
21671;SDS011;10997;52.242;8.168;2023-07-20T17:13:16;2.13;;;0.80;;
21671;SDS011;10997;52.242;8.168;2023-07-20T17:18:17;1.13;;;0.60;;
21671;SDS011;10997;52.242;8.168;2023-07-20T17:23:18;1.88;;;0.70;;
21671;SDS011;10997;52.242;8.168;2023-07-20T17:28:19;1.55;;;0.70;;
21671;SDS011;10997;52.242;8.168;2023-07-20T17:33:19;1.60;;;0.90;;
21671;SDS011;10997;52.242;8.168;2023-07-20T17:38:21;1.58;;;0.70;;
21671;SDS011;10997;52.242;8.168;2023-07-20T17:43:22;1.13;;;0.70;;
21671;SDS011;10997;52.242;8.168;2023-07-20T17:48:23;1.73;;;0.80;;
21671;SDS011;10997;52.242;8.168;2023-07-20T17:53:23;3.17;;;0.80;;
21671;SDS011;10997;52.242;8.168;2023-07-20T17:58:25;1.55;;;0.80;;
21671;SDS011;10997;52.242;8.168;2023-07-20T18:03:26;1.20;;;0.90;;
21671;SDS011;10997;52.242;8.168;2023-07-20T18:08:27;1.80;;;0.70;;
21671;SDS011;10997;52.242;8.168;2023-07-20T18:13:28;0.95;;;0.85;;
21671;SDS011;10997;52.242;8.168;2023-07-20T18:18:28;1.55;;;0.80;;
21671;SDS011;10997;52.242;8.168;2023-07-20T18:23:29;1.70;;;0.70;;
21671;SDS011;10997;52.242;8.168;2023-07-20T18:28:30;2.38;;;0.80;;
21671;SDS011;10997;52.242;8.168;2023-07-20T18:33:30;1.15;;;0.88;;
21671;SDS011;10997;52.242;8.168;2023-07-20T18:38:32;2.17;;;0.82;;
21671;SDS011;10997;52.242;8.168;2023-07-20T18:43:33;1.05;;;0.85;;
21671;SDS011;10997;52.242;8.168;2023-07-20T18:48:33;1.77;;;0.82;;
21671;SDS011;10997;52.242;8.168;2023-07-20T18:53:34;1.90;;;0.95;;
21671;SDS011;10997;52.242;8.168;2023-07-20T18:58:35;2.25;;;0.75;;
21671;SDS011;10997;52.242;8.168;2023-07-20T19:03:36;0.80;;;0.80;;
21671;SDS011;10997;52.242;8.168;2023-07-20T19:08:36;1.50;;;0.80;;
21671;SDS011;10997;52.242;8.168;2023-07-20T19:13:37;1.80;;;0.90;;
21671;SDS011;10997;52.242;8.168;2023-07-20T19:18:37;2.13;;;1.00;;
21671;SDS011;10997;52.242;8.168;2023-07-20T19:23:39;1.30;;;1.02;;
21671;SDS011;10997;52.242;8.168;2023-07-20T19:28:40;2.95;;;1.20;;
21671;SDS011;10997;52.242;8.168;2023-07-20T19:33:40;1.20;;;0.90;;
21671;SDS011;10997;52.242;8.168;2023-07-20T19:38:41;0.75;;;0.75;;
21671;SDS011;10997;52.242;8.168;2023-07-20T19:43:41;2.00;;;0.88;;
21671;SDS011;10997;52.242;8.168;2023-07-20T19:48:44;0.85;;;0.75;;
21671;SDS011;10997;52.242;8.168;2023-07-20T19:53:45;1.70;;;1.20;;
21671;SDS011;10997;52.242;8.168;2023-07-20T19:58:47;2.72;;;1.00;;
21671;SDS011;10997;52.242;8.168;2023-07-20T20:03:47;2.88;;;1.10;;
21671;SDS011;10997;52.242;8.168;2023-07-20T20:08:48;4.10;;;1.00;;
21671;SDS011;10997;52.242;8.168;2023-07-20T20:13:49;1.85;;;1.10;;
21671;SDS011;10997;52.242;8.168;2023-07-20T20:18:53;1.87;;;1.00;;
21671;SDS011;10997;52.242;8.168;2023-07-20T20:23:54;1.60;;;1.10;;
21671;SDS011;10997;52.242;8.168;2023-07-20T20:28:55;1.83;;;0.90;;
21671;SDS011;10997;52.242;8.168;2023-07-20T20:33:55;4.18;;;1.30;;
21671;SDS011;10997;52.242;8.168;2023-07-20T20:38:56;3.70;;;1.10;;
21671;SDS011;10997;52.242;8.168;2023-07-20T20:43:56;2.78;;;1.20;;
21671;SDS011;10997;52.242;8.168;2023-07-20T20:48:57;2.25;;;1.45;;
21671;SDS011;10997;52.242;8.168;2023-07-20T20:54:00;2.83;;;1.50;;
21671;SDS011;10997;52.242;8.168;2023-07-20T20:59:01;2.28;;;1.30;;
21671;SDS011;10997;52.242;8.168;2023-07-20T21:04:03;3.58;;;1.30;;
21671;SDS011;10997;52.242;8.168;2023-07-20T21:09:03;2.13;;;1.50;;
21671;SDS011;10997;52.242;8.168;2023-07-20T21:14:04;2.80;;;1.60;;
21671;SDS011;10997;52.242;8.168;2023-07-20T21:19:04;1.98;;;1.33;;
21671;SDS011;10997;52.242;8.168;2023-07-20T21:24:05;4.95;;;1.70;;
21671;SDS011;10997;52.242;8.168;2023-07-20T21:29:06;5.05;;;1.70;;
21671;SDS011;10997;52.242;8.168;2023-07-20T21:34:06;4.07;;;1.65;;
21671;SDS011;10997;52.242;8.168;2023-07-20T21:39:07;3.60;;;1.65;;
21671;SDS011;10997;52.242;8.168;2023-07-20T21:44:08;4.25;;;1.50;;
21671;SDS011;10997;52.242;8.168;2023-07-20T21:49:08;5.05;;;1.30;;
21671;SDS011;10997;52.242;8.168;2023-07-20T21:54:09;3.40;;;1.75;;
21671;SDS011;10997;52.242;8.168;2023-07-20T21:59:10;2.10;;;1.63;;
21671;SDS011;10997;52.242;8.168;2023-07-20T22:04:12;3.88;;;1.60;;
21671;SDS011;10997;52.242;8.168;2023-07-20T22:09:12;2.72;;;1.60;;
21671;SDS011;10997;52.242;8.168;2023-07-20T22:14:13;5.78;;;1.40;;
21671;SDS011;10997;52.242;8.168;2023-07-20T22:19:15;2.72;;;1.70;;
21671;SDS011;10997;52.242;8.168;2023-07-20T22:24:18;5.45;;;1.70;;
21671;SDS011;10997;52.242;8.168;2023-07-20T22:29:19;4.15;;;1.58;;
21671;SDS011;10997;52.242;8.168;2023-07-20T22:34:20;5.78;;;1.80;;
21671;SDS011;10997;52.242;8.168;2023-07-20T22:39:20;3.55;;;1.80;;
21671;SDS011;10997;52.242;8.168;2023-07-20T22:44:21;4.60;;;2.13;;
21671;SDS011;10997;52.242;8.168;2023-07-20T22:49:22;4.07;;;1.98;;
21671;SDS011;10997;52.242;8.168;2023-07-20T22:54:22;3.70;;;1.83;;
21671;SDS011;10997;52.242;8.168;2023-07-20T22:59:23;3.88;;;1.98;;
21671;SDS011;10997;52.242;8.168;2023-07-20T23:04:25;3.50;;;1.90;;
21671;SDS011;10997;52.242;8.168;2023-07-20T23:09:26;4.38;;;2.03;;
21671;SDS011;10997;52.242;8.168;2023-07-20T23:14:27;6.13;;;2.00;;
21671;SDS011;10997;52.242;8.168;2023-07-20T23:19:28;3.55;;;1.80;;
21671;SDS011;10997;52.242;8.168;2023-07-20T23:24:30;4.05;;;1.80;;
21671;SDS011;10997;52.242;8.168;2023-07-20T23:29:31;3.40;;;1.90;;
21671;SDS011;10997;52.242;8.168;2023-07-20T23:34:31;5.57;;;2.10;;
21671;SDS011;10997;52.242;8.168;2023-07-20T23:39:35;3.83;;;2.00;;
21671;SDS011;10997;52.242;8.168;2023-07-20T23:44:35;2.92;;;2.00;;
21671;SDS011;10997;52.242;8.168;2023-07-20T23:49:36;6.55;;;1.88;;
21671;SDS011;10997;52.242;8.168;2023-07-20T23:54:36;4.15;;;2.20;;
21671;SDS011;10997;52.242;8.168;2023-07-20T23:59:37;3.95;;;2.38;;
